Time;durP1;ratioP1;P1;durP2;ratioP2;P2;SDS_P1;SDS_P2;PMS_P1;PMS_P2;Temp;Humidity;BMP_temperature;BMP_pressure;BME280_temperature;BME280_humidity;BME280_pressure;Samples;Min_cycle;Max_cycle;Signal;HPM_P1;HPM_P2
2023/03/19 00:01:56;;;;;;;13.27;5.60;;;10.50;79.50;;;;;;4975287;28;88813;-69
2023/03/19 00:04:23;;;;;;;13.93;6.25;;;10.50;79.00;;;;;;4965501;28;88744;-70
2023/03/19 00:06:49;;;;;;;16.98;6.05;;;10.50;78.80;;;;;;4976623;28;87447;-72
2023/03/19 00:09:15;;;;;;;14.40;5.60;;;10.50;78.70;;;;;;4968514;28;87653;-72
2023/03/19 00:11:41;;;;;;;15.43;5.85;;;10.50;79.00;;;;;;4970987;28;87857;-72
2023/03/19 00:14:07;;;;;;;13.50;5.72;;;10.50;78.80;;;;;;4970136;28;87809;-73
2023/03/19 00:16:33;;;;;;;14.35;5.68;;;10.50;78.80;;;;;;4973632;28;87407;-71
2023/03/19 00:18:59;;;;;;;15.43;5.53;;;10.50;78.50;;;;;;4968480;28;89002;-72
2023/03/19 00:21:24;;;;;;;12.07;5.50;;;10.50;78.30;;;;;;4974066;28;88658;-71
2023/03/19 00:23:50;;;;;;;11.68;5.35;;;10.50;78.50;;;;;;4970931;28;88749;-73
2023/03/19 00:26:17;;;;;;;11.40;5.20;;;10.50;78.30;;;;;;4975545;28;87769;-72
2023/03/19 00:28:42;;;;;;;11.05;4.68;;;10.50;78.10;;;;;;4969770;28;88261;-72
2023/03/19 00:31:15;;;;;;;8.38;4.15;;;10.50;77.80;;;;;;4972769;28;88530;-71
2023/03/19 00:33:41;;;;;;;10.38;4.65;;;10.50;77.50;;;;;;4970532;28;87968;-71
2023/03/19 00:36:08;;;;;;;11.68;4.72;;;10.60;77.50;;;;;;4971223;28;86467;-72
2023/03/19 00:38:34;;;;;;;11.20;4.82;;;10.60;77.40;;;;;;4965584;28;87526;-69
2023/03/19 00:41:01;;;;;;;9.32;4.38;;;10.50;77.90;;;;;;4968774;28;87978;-71
2023/03/19 00:43:27;;;;;;;10.40;5.05;;;10.50;77.80;;;;;;4965575;28;89903;-73
2023/03/19 00:45:53;;;;;;;13.57;4.60;;;10.50;78.50;;;;;;4966462;28;87390;-72
2023/03/19 00:48:20;;;;;;;12.55;5.03;;;10.40;78.70;;;;;;4968313;28;88636;-70
2023/03/19 00:50:46;;;;;;;10.70;5.15;;;10.50;78.50;;;;;;4973716;28;89211;-72
2023/03/19 00:53:12;;;;;;;12.15;5.03;;;10.50;79.00;;;;;;4966817;28;90164;-69
2023/03/19 00:55:37;;;;;;;11.98;4.97;;;10.40;79.10;;;;;;4972280;28;87788;-70
2023/03/19 00:58:09;;;;;;;10.85;4.63;;;10.40;79.20;;;;;;4967007;28;89567;-71
2023/03/19 01:00:35;;;;;;;13.90;5.00;;;10.40;78.90;;;;;;4970128;28;88093;-70
2023/03/19 01:03:02;;;;;;;11.77;4.55;;;10.40;78.80;;;;;;4971398;28;87467;-72
2023/03/19 01:05:29;;;;;;;11.00;4.43;;;10.40;79.90;;;;;;4966270;28;87931;-71
2023/03/19 01:07:55;;;;;;;12.32;4.82;;;10.30;79.30;;;;;;4975027;28;88581;-70
2023/03/19 01:10:22;;;;;;;10.18;4.43;;;10.30;79.50;;;;;;4972162;28;88334;-71
2023/03/19 01:12:48;;;;;;;10.70;4.35;;;10.30;79.90;;;;;;4967227;28;87620;-72
2023/03/19 01:15:14;;;;;;;10.15;4.03;;;10.30;79.70;;;;;;4969736;28;88338;-71
2023/03/19 01:17:41;;;;;;;9.23;4.35;;;10.30;80.20;;;;;;4966276;28;88953;-73
2023/03/19 01:20:11;;;;;;;12.07;4.60;;;10.20;79.90;;;;;;4967172;28;89308;-72
2023/03/19 01:22:40;;;;;;;9.48;4.45;;;10.20;80.10;;;;;;4970486;28;89385;-71
2023/03/19 01:25:07;;;;;;;9.85;4.40;;;10.20;79.70;;;;;;4967843;28;87123;-73
2023/03/19 01:27:33;;;;;;;10.35;4.13;;;10.20;80.00;;;;;;4975540;28;89740;-72
2023/03/19 01:29:58;;;;;;;12.25;4.88;;;10.20;79.80;;;;;;4963023;28;87722;-72
2023/03/19 01:32:24;;;;;;;9.75;4.07;;;10.20;79.80;;;;;;4961435;28;88410;-74
2023/03/19 01:34:50;;;;;;;10.35;4.50;;;10.10;79.80;;;;;;4967136;28;87517;-72
2023/03/19 01:37:16;;;;;;;10.63;4.60;;;10.10;79.90;;;;;;4970945;28;87574;-72
2023/03/19 01:39:42;;;;;;;10.90;4.70;;;10.10;79.70;;;;;;4970164;28;87484;-71
2023/03/19 01:42:07;;;;;;;9.27;4.05;;;10.00;80.20;;;;;;4974247;28;87048;-71
2023/03/19 01:44:36;;;;;;;9.50;3.97;;;10.00;80.20;;;;;;4972108;28;87406;-71
2023/03/19 01:47:06;;;;;;;9.20;3.80;;;10.00;80.40;;;;;;4969190;28;89169;-73
2023/03/19 01:49:33;;;;;;;11.68;4.38;;;10.00;80.10;;;;;;4967412;28;86924;-72
2023/03/19 01:52:01;;;;;;;10.40;4.32;;;10.00;80.10;;;;;;4965628;28;88426;-71
2023/03/19 01:54:31;;;;;;;13.07;4.50;;;10.00;80.30;;;;;;4969473;28;87495;-71
2023/03/19 01:57:10;;;;;;;9.32;4.05;;;10.00;80.40;;;;;;4967525;28;88738;-71
2023/03/19 01:59:40;;;;;;;12.13;4.40;;;9.90;80.50;;;;;;4969923;28;89081;-70
2023/03/19 02:02:06;;;;;;;;;;;10.00;80.50;;;;;;4975298;28;87558;-71
2023/03/19 02:04:35;;;;;;;12.15;4.93;;;10.00;80.60;;;;;;4971629;28;87195;-71
2023/03/19 02:07:02;;;;;;;8.95;3.83;;;10.00;80.90;;;;;;4963381;28;88452;-71
2023/03/19 02:09:29;;;;;;;8.82;3.72;;;9.90;80.80;;;;;;4967044;28;88657;-72
2023/03/19 02:11:56;;;;;;;12.18;4.97;;;10.00;80.70;;;;;;4968197;28;87541;-73
2023/03/19 02:14:22;;;;;;;10.98;4.53;;;9.90;81.10;;;;;;4972821;28;86291;-71
2023/03/19 02:16:48;;;;;;;12.57;4.90;;;9.90;80.70;;;;;;4967379;28;88297;-73
2023/03/19 02:19:21;;;;;;;11.18;4.40;;;9.90;80.80;;;;;;4975601;28;88626;-71
2023/03/19 02:21:48;;;;;;;11.27;4.13;;;10.00;80.60;;;;;;4968648;28;89743;-73
2023/03/19 02:24:27;;;;;;;13.48;5.03;;;10.00;81.30;;;;;;4972640;28;87517;-70
2023/03/19 02:26:55;;;;;;;12.75;4.72;;;9.90;81.00;;;;;;4968015;28;87540;-72
2023/03/19 02:29:20;;;;;;;10.18;4.55;;;10.00;81.10;;;;;;4960647;28;88988;-70
2023/03/19 02:31:46;;;;;;;10.68;4.68;;;10.00;81.60;;;;;;4972785;28;87480;-71
2023/03/19 02:34:17;;;;;;;12.52;4.80;;;10.00;80.80;;;;;;4967011;28;87732;-71
2023/03/19 02:37:05;;;;;;;9.07;4.55;;;10.00;80.80;;;;;;4968191;28;88839;-73
2023/03/19 02:39:42;;;;;;;9.73;4.68;;;10.00;80.80;;;;;;4960913;28;87622;-71
2023/03/19 02:42:09;;;;;;;10.68;5.07;;;10.00;81.10;;;;;;4966398;28;87442;-71
2023/03/19 02:44:36;;;;;;;11.95;4.85;;;10.10;81.10;;;;;;4970950;28;87503;-69
2023/03/19 02:47:02;;;;;;;14.32;5.22;;;10.10;81.50;;;;;;4970832;28;89106;-71
2023/03/19 02:49:28;;;;;;;15.23;5.70;;;10.10;81.70;;;;;;4972608;28;88597;-71
2023/03/19 02:51:54;;;;;;;12.52;5.50;;;10.00;82.10;;;;;;4970226;28;87618;-69
2023/03/19 02:54:20;;;;;;;10.40;4.40;;;9.90;82.30;;;;;;4969716;28;88471;-71
2023/03/19 02:56:46;;;;;;;9.95;4.00;;;9.90;81.90;;;;;;4964369;28;88195;-71
2023/03/19 02:59:12;;;;;;;14.25;5.72;;;9.90;83.40;;;;;;4974847;28;87785;-72
2023/03/19 03:01:38;;;;;;;10.40;4.28;;;9.90;83.40;;;;;;4972385;28;88730;-72
2023/03/19 03:04:04;;;;;;;11.07;4.65;;;9.90;82.10;;;;;;4971607;28;87647;-74
2023/03/19 03:06:30;;;;;;;10.95;4.53;;;10.00;82.00;;;;;;4972083;28;87857;-72
2023/03/19 03:08:55;;;;;;;10.35;3.78;;;10.10;82.00;;;;;;4972639;28;88734;-72
2023/03/19 03:11:21;;;;;;;7.97;3.53;;;10.20;81.40;;;;;;4966410;28;88268;-73
2023/03/19 03:13:47;;;;;;;8.40;3.42;;;10.20;80.80;;;;;;4970677;28;87500;-69
2023/03/19 03:16:13;;;;;;;8.18;3.33;;;10.30;80.70;;;;;;4965894;28;88777;-72
2023/03/19 03:18:38;;;;;;;10.50;3.28;;;10.30;80.20;;;;;;4972970;28;88929;-70
2023/03/19 03:21:04;;;;;;;9.15;3.40;;;10.40;80.10;;;;;;4980372;28;87449;-72
2023/03/19 03:23:30;;;;;;;8.50;3.42;;;10.40;80.10;;;;;;4966335;28;87354;-73
2023/03/19 03:25:55;;;;;;;8.60;3.53;;;10.30;80.20;;;;;;4974650;28;87659;-71
2023/03/19 03:28:22;;;;;;;8.15;3.40;;;10.40;80.20;;;;;;4968252;28;87481;-71
2023/03/19 03:30:48;;;;;;;9.35;3.42;;;10.40;79.80;;;;;;4966783;28;87546;-71
2023/03/19 03:33:14;;;;;;;8.88;3.00;;;10.40;80.00;;;;;;4969910;28;87094;-71
2023/03/19 03:35:39;;;;;;;7.97;3.63;;;10.40;80.20;;;;;;4972937;28;89313;-71
2023/03/19 03:38:05;;;;;;;8.93;3.28;;;10.40;80.10;;;;;;4970815;28;88776;-71
2023/03/19 03:40:32;;;;;;;10.80;3.15;;;10.40;80.20;;;;;;4973830;28;89103;-71
2023/03/19 03:42:58;;;;;;;6.78;2.90;;;10.40;80.40;;;;;;4964357;28;88841;-71
2023/03/19 03:45:23;;;;;;;7.70;3.55;;;10.30;80.50;;;;;;4973287;28;87512;-72
2023/03/19 03:47:49;;;;;;;8.45;3.08;;;10.40;80.20;;;;;;4975820;28;87590;-71
2023/03/19 03:50:15;;;;;;;10.55;3.65;;;10.40;80.30;;;;;;4973011;28;87844;-71
2023/03/19 03:52:41;;;;;;;8.63;3.30;;;10.40;80.30;;;;;;4977608;28;86782;-70
2023/03/19 03:55:08;;;;;;;7.85;3.20;;;10.40;80.30;;;;;;4975097;28;88373;-71
2023/03/19 03:57:35;;;;;;;6.35;2.63;;;10.30;80.60;;;;;;4972348;28;88532;-70
2023/03/19 04:00:00;;;;;;;5.38;2.33;;;10.30;80.30;;;;;;4973970;28;88523;-70
2023/03/19 04:02:26;;;;;;;7.72;3.03;;;10.30;80.40;;;;;;4971762;28;87522;-71
2023/03/19 04:04:52;;;;;;;6.95;2.45;;;10.30;80.50;;;;;;4970536;28;88203;-72
2023/03/19 04:07:18;;;;;;;8.38;2.75;;;10.40;80.20;;;;;;4964038;28;88006;-71
2023/03/19 04:09:44;;;;;;;9.63;2.72;;;10.40;80.00;;;;;;4968897;28;87427;-70
2023/03/19 04:12:12;;;;;;;6.40;2.38;;;10.40;80.00;;;;;;4974164;28;87584;-72
2023/03/19 04:14:37;;;;;;;7.60;2.33;;;10.40;80.10;;;;;;4969393;28;88040;-71
2023/03/19 04:17:04;;;;;;;5.63;2.53;;;10.40;80.10;;;;;;4977385;28;87682;-71
2023/03/19 04:19:30;;;;;;;6.45;2.75;;;10.40;80.00;;;;;;4966363;28;87717;-72
2023/03/19 04:21:56;;;;;;;6.25;2.55;;;10.40;80.10;;;;;;4971885;28;87583;-71
2023/03/19 04:24:22;;;;;;;11.75;2.95;;;10.30;80.10;;;;;;4964992;28;88895;-70
2023/03/19 04:26:48;;;;;;;7.53;2.33;;;10.30;80.30;;;;;;4967050;28;87249;-72
2023/03/19 04:29:14;;;;;;;6.57;2.17;;;10.30;80.20;;;;;;4970976;28;89090;-71
2023/03/19 04:31:40;;;;;;;8.88;2.25;;;10.30;80.20;;;;;;4973180;28;87327;-73
2023/03/19 04:34:06;;;;;;;8.18;2.58;;;10.30;80.30;;;;;;4971913;28;87904;-72
2023/03/19 04:36:32;;;;;;;6.53;2.47;;;10.20;80.20;;;;;;4971403;28;87635;-71
2023/03/19 04:38:57;;;;;;;6.45;2.42;;;10.20;80.30;;;;;;4974020;28;88411;-73
2023/03/19 04:41:23;;;;;;;9.18;2.83;;;10.20;80.00;;;;;;4974317;28;88121;-69
2023/03/19 04:43:49;;;;;;;8.45;2.47;;;10.30;80.80;;;;;;4968685;28;87571;-71
2023/03/19 04:46:15;;;;;;;8.57;3.20;;;10.20;80.50;;;;;;4964208;28;88044;-71
2023/03/19 04:48:41;;;;;;;9.18;2.70;;;10.20;80.60;;;;;;4972747;28;88364;-73
2023/03/19 04:51:08;;;;;;;5.85;2.13;;;10.20;80.60;;;;;;4975908;28;87382;-71
2023/03/19 04:53:34;;;;;;;5.57;2.35;;;10.10;80.50;;;;;;4966305;28;88317;-72
2023/03/19 04:56:00;;;;;;;5.50;2.20;;;10.20;80.70;;;;;;4973135;28;87883;-71
2023/03/19 04:58:26;;;;;;;7.05;2.17;;;10.10;80.80;;;;;;4971566;28;87313;-71
2023/03/19 05:00:52;;;;;;;6.15;2.25;;;10.20;80.90;;;;;;4966587;28;87087;-70
2023/03/19 05:03:18;;;;;;;6.03;2.15;;;10.20;80.80;;;;;;4970419;28;87507;-71
2023/03/19 05:05:44;;;;;;;6.85;2.20;;;10.20;81.00;;;;;;4969474;28;87258;-72
2023/03/19 05:08:10;;;;;;;7.40;2.33;;;10.20;81.10;;;;;;4974462;28;87357;-71
2023/03/19 05:10:36;;;;;;;5.70;2.40;;;10.20;81.20;;;;;;4971329;28;87321;-71
2023/03/19 05:13:02;;;;;;;5.95;2.45;;;10.20;80.90;;;;;;4964739;28;89268;-72
2023/03/19 05:15:28;;;;;;;5.05;2.25;;;10.20;81.30;;;;;;4972405;28;87731;-71
2023/03/19 05:17:54;;;;;;;4.80;2.10;;;10.20;81.20;;;;;;4973229;28;87692;-71
2023/03/19 05:20:20;;;;;;;6.97;2.08;;;10.20;80.90;;;;;;4970397;28;87371;-71
2023/03/19 05:22:46;;;;;;;6.93;2.15;;;10.30;80.20;;;;;;4970764;28;88638;-72
2023/03/19 05:25:12;;;;;;;8.10;2.20;;;10.30;80.30;;;;;;4965815;28;87694;-71
2023/03/19 05:27:38;;;;;;;7.15;2.03;;;10.40;80.60;;;;;;4974572;28;88070;-71
2023/03/19 05:30:05;;;;;;;5.05;2.17;;;10.40;79.40;;;;;;4973144;28;86304;-73
2023/03/19 05:32:31;;;;;;;6.65;2.10;;;10.40;79.20;;;;;;4966537;28;89759;-73
2023/03/19 05:34:57;;;;;;;5.43;2.17;;;10.50;79.00;;;;;;4973334;28;87535;-73
2023/03/19 05:37:23;;;;;;;7.85;2.20;;;10.50;78.70;;;;;;4971914;28;88805;-72
2023/03/19 05:39:50;;;;;;;7.82;2.03;;;10.60;79.10;;;;;;4971922;28;88405;-70
2023/03/19 05:42:16;;;;;;;4.53;2.17;;;10.60;79.40;;;;;;4971691;28;88343;-70
2023/03/19 05:44:42;;;;;;;7.38;2.20;;;10.60;79.50;;;;;;4963062;28;88184;-70
2023/03/19 05:47:10;;;;;;;5.82;2.00;;;10.60;79.40;;;;;;4958389;28;87601;-71
2023/03/19 05:49:36;;;;;;;5.75;2.05;;;10.60;79.30;;;;;;4954468;28;88656;-70
2023/03/19 05:52:02;;;;;;;7.57;1.98;;;10.60;78.90;;;;;;4964343;28;88810;-72
2023/03/19 05:54:27;;;;;;;5.82;1.95;;;10.60;78.70;;;;;;4975728;28;88192;-71
2023/03/19 05:56:54;;;;;;;4.88;2.03;;;10.70;78.70;;;;;;4963037;28;87567;-71
2023/03/19 05:59:20;;;;;;;5.38;2.22;;;10.70;78.60;;;;;;4961559;28;87575;-73
2023/03/19 06:01:46;;;;;;;6.40;2.20;;;10.70;78.10;;;;;;4967870;28;90075;-71
2023/03/19 06:04:11;;;;;;;4.85;2.00;;;10.80;77.50;;;;;;4965523;28;88854;-71
2023/03/19 06:06:37;;;;;;;4.88;1.80;;;10.80;78.00;;;;;;4975325;28;87407;-71
2023/03/19 06:09:03;;;;;;;5.70;2.30;;;10.80;78.00;;;;;;4966786;28;88846;-72
2023/03/19 06:11:28;;;;;;;6.20;2.63;;;10.80;77.60;;;;;;4964558;28;90224;-71
2023/03/19 06:13:54;;;;;;;5.75;2.08;;;10.80;77.90;;;;;;4976075;28;87847;-71
2023/03/19 06:16:20;;;;;;;4.90;1.85;;;10.80;78.00;;;;;;4967309;28;88618;-74
2023/03/19 06:18:46;;;;;;;6.13;2.00;;;10.90;77.80;;;;;;4964965;28;88077;-71
2023/03/19 06:21:11;;;;;;;6.45;2.22;;;10.90;77.70;;;;;;4966670;28;89797;-71
2023/03/19 06:23:37;;;;;;;6.80;2.63;;;10.90;78.00;;;;;;4971274;28;88815;-71
2023/03/19 06:26:04;;;;;;;6.50;2.85;;;10.90;78.70;;;;;;4978243;28;89299;-68
2023/03/19 06:28:31;;;;;;;8.98;2.65;;;10.90;77.80;;;;;;4968047;28;87977;-72
2023/03/19 06:30:57;;;;;;;7.70;2.83;;;10.90;77.60;;;;;;4969812;28;88068;-68
2023/03/19 06:33:26;;;;;;;7.07;2.70;;;11.00;77.80;;;;;;4969822;28;87810;-68
2023/03/19 06:35:52;;;;;;;10.65;3.28;;;11.10;77.70;;;;;;4959329;28;87527;-69
2023/03/19 06:38:18;;;;;;;6.78;2.90;;;11.10;78.10;;;;;;4964975;28;87527;-72
2023/03/19 06:40:44;;;;;;;7.05;2.90;;;11.20;77.60;;;;;;4969694;28;88504;-72
2023/03/19 06:43:10;;;;;;;7.15;2.50;;;11.20;77.60;;;;;;4960423;28;88332;-72
2023/03/19 06:45:36;;;;;;;6.75;2.78;;;11.20;77.70;;;;;;4976392;28;87133;-72
2023/03/19 06:48:02;;;;;;;7.18;2.78;;;11.20;77.70;;;;;;4972195;28;89403;-71
2023/03/19 06:50:27;;;;;;;4.40;1.83;;;11.30;77.80;;;;;;4968194;28;90381;-71
2023/03/19 06:52:53;;;;;;;7.97;2.45;;;11.40;76.90;;;;;;4964763;28;88869;-71
2023/03/19 06:55:19;;;;;;;8.75;2.60;;;11.40;77.60;;;;;;4965833;28;88951;-70
2023/03/19 06:57:49;;;;;;;6.82;2.75;;;11.40;77.80;;;;;;4966880;28;89058;-69
2023/03/19 07:00:15;;;;;;;;;;;11.60;77.20;;;;;;4961719;28;89319;-71
2023/03/19 07:02:41;;;;;;;5.70;2.38;;;11.80;76.40;;;;;;4971894;28;87298;-71
2023/03/19 07:05:07;;;;;;;6.45;2.50;;;11.90;76.60;;;;;;4969841;28;88362;-71
2023/03/19 07:07:33;;;;;;;6.43;2.20;;;12.10;75.40;;;;;;4984354;28;87762;-71
2023/03/19 07:09:58;;;;;;;6.55;2.35;;;12.40;74.10;;;;;;4966094;28;89093;-69
2023/03/19 07:12:26;;;;;;;7.72;2.60;;;12.60;73.90;;;;;;4968600;28;87188;-71
2023/03/19 07:14:55;;;;;;;10.10;2.70;;;12.80;72.80;;;;;;4963832;28;89837;-71
2023/03/19 07:17:21;;;;;;;7.35;2.22;;;13.20;71.70;;;;;;4972801;28;87957;-71
2023/03/19 07:19:47;;;;;;;7.88;2.70;;;13.50;70.60;;;;;;4971784;28;89461;-73
2023/03/19 07:22:13;;;;;;;6.38;2.50;;;14.00;68.50;;;;;;4962184;28;87601;-70
2023/03/19 07:24:39;;;;;;;6.38;2.85;;;14.50;68.00;;;;;;4968563;28;89640;-73
2023/03/19 07:27:05;;;;;;;5.30;1.92;;;15.10;65.70;;;;;;4965564;28;87409;-70
2023/03/19 07:29:30;;;;;;;5.82;1.88;;;15.70;62.90;;;;;;4963710;28;88929;-70
2023/03/19 07:31:56;;;;;;;8.20;2.20;;;16.10;62.10;;;;;;4970670;28;87848;-71
2023/03/19 07:34:22;;;;;;;7.40;2.05;;;16.50;60.70;;;;;;4966965;28;87763;-70
2023/03/19 07:36:48;;;;;;;6.50;2.17;;;16.70;60.70;;;;;;4968569;28;87976;-72
2023/03/19 07:39:14;;;;;;;6.53;1.92;;;17.40;57.60;;;;;;4959659;28;89119;-71
2023/03/19 07:41:40;;;;;;;5.97;2.30;;;17.80;56.70;;;;;;4962845;28;88175;-72
2023/03/19 07:44:05;;;;;;;8.57;2.53;;;18.20;55.90;;;;;;4963997;28;89065;-72
2023/03/19 07:46:31;;;;;;;5.43;1.77;;;18.50;53.90;;;;;;4960820;28;89730;-70
2023/03/19 07:48:57;;;;;;;6.20;2.22;;;18.70;54.50;;;;;;4969267;28;89036;-69
2023/03/19 07:51:22;;;;;;;4.78;2.00;;;19.20;54.10;;;;;;4966890;28;87747;-70
2023/03/19 07:53:48;;;;;;;6.05;2.00;;;19.70;52.00;;;;;;4965011;28;88042;-72
2023/03/19 07:56:14;;;;;;;7.10;2.70;;;19.70;52.60;;;;;;4967895;28;88248;-72
2023/03/19 07:58:40;;;;;;;4.22;1.98;;;20.00;52.40;;;;;;4964937;28;88609;-71
2023/03/19 08:01:07;;;;;;;5.03;2.38;;;19.90;51.00;;;;;;4967819;28;87421;-70
2023/03/19 08:03:33;;;;;;;5.10;2.15;;;19.90;51.30;;;;;;4962830;28;90103;-71
2023/03/19 08:05:58;;;;;;;8.48;2.63;;;19.70;51.80;;;;;;4969204;28;88546;-71
2023/03/19 08:08:24;;;;;;;5.40;2.17;;;19.70;52.80;;;;;;4973653;28;88268;-70
2023/03/19 08:10:53;;;;;;;5.20;2.15;;;20.10;51.10;;;;;;4971394;28;87428;-71
2023/03/19 08:13:18;;;;;;;7.10;2.33;;;20.40;50.80;;;;;;4975883;28;87695;-71
2023/03/19 08:15:44;;;;;;;5.88;2.35;;;20.30;50.50;;;;;;4975916;28;87423;-71
2023/03/19 08:18:10;;;;;;;6.55;2.22;;;20.00;50.80;;;;;;4975373;28;89386;-72
2023/03/19 08:20:36;;;;;;;7.15;2.20;;;20.30;50.00;;;;;;4969299;28;88002;-72
2023/03/19 08:23:01;;;;;;;6.03;2.28;;;20.40;48.40;;;;;;4965084;28;87470;-70
2023/03/19 08:25:31;;;;;;;4.28;1.98;;;20.00;49.80;;;;;;4963677;28;87567;-71
2023/03/19 08:27:57;;;;;;;7.20;2.35;;;20.00;49.40;;;;;;4965479;28;91385;-71
2023/03/19 08:30:23;;;;;;;5.38;2.40;;;20.30;49.00;;;;;;4963059;28;88265;-72
2023/03/19 08:32:49;;;;;;;5.82;2.25;;;21.30;47.40;;;;;;4964902;28;87929;-71
2023/03/19 08:35:15;;;;;;;5.30;2.78;;;22.60;47.40;;;;;;4964277;28;87518;-70
2023/03/19 08:37:41;;;;;;;6.72;3.45;;;24.40;44.50;;;;;;4970627;28;87983;-70
2023/03/19 08:40:07;;;;;;;6.38;2.50;;;26.10;41.30;;;;;;4967142;28;87858;-70
2023/03/19 08:42:33;;;;;;;6.20;3.33;;;27.90;38.00;;;;;;4963819;28;88775;-71
2023/03/19 08:44:59;;;;;;;5.10;2.50;;;28.90;36.30;;;;;;4966840;28;87603;-76
2023/03/19 08:47:25;;;;;;;7.60;3.35;;;29.40;34.20;;;;;;4977182;28;88650;-72
2023/03/19 08:49:51;;;;;;;5.20;3.00;;;30.00;33.90;;;;;;4974172;28;87862;-71
2023/03/19 08:52:18;;;;;;;4.93;3.00;;;30.80;33.90;;;;;;4962691;28;88574;-70
2023/03/19 08:54:44;;;;;;;8.70;3.08;;;31.90;33.10;;;;;;4967106;28;89047;-68
2023/03/19 08:57:10;;;;;;;4.47;2.35;;;32.50;31.40;;;;;;4963218;28;88057;-70
2023/03/19 08:59:35;;;;;;;6.57;3.05;;;32.60;32.30;;;;;;4964500;28;90124;-69
2023/03/19 09:02:01;;;;;;;4.75;3.58;;;32.70;30.80;;;;;;4971711;28;87674;-70
2023/03/19 09:04:27;;;;;;;4.45;2.97;;;33.30;30.80;;;;;;4963430;28;87470;-70
2023/03/19 09:06:53;;;;;;;7.72;3.72;;;33.50;30.40;;;;;;4970053;28;87704;-72
2023/03/19 09:09:20;;;;;;;5.72;3.03;;;33.70;30.00;;;;;;4966099;28;87862;-70
2023/03/19 09:11:46;;;;;;;4.38;2.42;;;34.60;30.60;;;;;;4963627;28;87220;-68
2023/03/19 09:14:15;;;;;;;4.53;2.70;;;35.50;28.70;;;;;;4962921;28;88846;-69
2023/03/19 09:16:41;;;;;;;5.13;2.97;;;35.20;30.00;;;;;;4963302;28;89083;-72
2023/03/19 09:19:07;;;;;;;5.07;2.85;;;34.70;29.60;;;;;;4959443;28;88775;-74
2023/03/19 09:21:33;;;;;;;4.60;2.63;;;33.60;29.60;;;;;;4959676;28;88789;-70
2023/03/19 09:23:59;;;;;;;4.15;1.95;;;32.40;30.00;;;;;;4965334;28;87594;-74
2023/03/19 09:26:24;;;;;;;4.13;2.20;;;31.60;30.10;;;;;;4960962;28;87528;-72
2023/03/19 09:28:50;;;;;;;6.82;2.80;;;31.30;29.70;;;;;;4975603;28;87782;-71
2023/03/19 09:31:16;;;;;;;6.97;1.77;;;31.40;30.00;;;;;;4968878;28;87732;-70
2023/03/19 09:33:42;;;;;;;5.20;2.67;;;31.70;29.70;;;;;;4971438;28;87405;-72
2023/03/19 09:36:08;;;;;;;3.25;2.30;;;32.40;30.20;;;;;;4963175;28;88209;-72
2023/03/19 09:38:34;;;;;;;4.93;2.03;;;33.30;29.50;;;;;;4966322;28;89475;-72
2023/03/19 09:41:32;;;;;;;5.80;2.60;;;34.60;29.30;;;;;;4962432;28;88834;-72
2023/03/19 09:44:28;;;;;;;5.53;2.88;;;35.50;28.00;;;;;;4958365;28;88539;-73
2023/03/19 09:47:15;;;;;;;4.40;2.78;;;36.00;28.20;;;;;;4958386;28;88279;-70
2023/03/19 09:49:47;;;;;;;7.07;2.17;;;35.20;27.70;;;;;;4967026;28;87483;-69
2023/03/19 09:52:43;;;;;;;6.57;2.08;;;33.50;28.60;;;;;;4968096;28;87225;-71
2023/03/19 09:55:32;;;;;;;4.40;2.20;;;32.10;29.10;;;;;;4976204;28;87642;-71
2023/03/19 09:57:59;;;;;;;3.28;1.60;;;31.20;30.10;;;;;;4978524;28;87730;-70
2023/03/19 10:00:35;;;;;;;4.60;2.53;;;30.80;30.20;;;;;;4979639;28;88733;-69
2023/03/19 10:03:12;;;;;;;3.22;2.10;;;30.90;30.40;;;;;;4979422;28;87388;-70
2023/03/19 10:06:06;;;;;;;3.65;2.20;;;31.30;30.50;;;;;;4978413;28;87474;-69
2023/03/19 10:08:53;;;;;;;3.95;2.15;;;31.80;29.90;;;;;;4976728;28;89587;-69
2023/03/19 10:11:39;;;;;;;3.13;2.05;;;32.90;29.60;;;;;;4972844;28;88398;-70
2023/03/19 10:14:32;;;;;;;3.50;1.88;;;33.50;29.30;;;;;;4974682;28;89323;-69
2023/03/19 10:17:00;;;;;;;2.60;1.92;;;33.10;29.10;;;;;;4966867;28;87395;-69
2023/03/19 10:19:56;;;;;;;4.45;2.00;;;33.30;29.70;;;;;;4976498;28;89342;-69
2023/03/19 10:22:48;;;;;;;2.85;1.50;;;33.70;29.00;;;;;;4974287;28;87295;-69
2023/03/19 10:25:27;;;;;;;5.65;2.10;;;32.70;29.70;;;;;;4976490;28;87253;-69
2023/03/19 10:27:59;;;;;;;4.18;2.05;;;30.60;30.40;;;;;;4978932;28;86604;-71
2023/03/19 10:30:25;;;;;;;4.03;1.63;;;29.70;31.10;;;;;;4976595;28;87017;-70
2023/03/19 10:33:16;;;;;;;4.80;1.23;;;28.50;31.70;;;;;;4981569;28;87854;-69
2023/03/19 10:35:50;;;;;;;4.47;1.40;;;27.30;32.60;;;;;;4977351;28;88358;-70
2023/03/19 10:38:24;;;;;;;2.53;1.35;;;26.60;33.80;;;;;;4977730;28;87156;-70
2023/03/19 10:41:21;;;;;;;2.55;1.23;;;26.30;34.90;;;;;;4975242;28;89204;-70
2023/03/19 10:43:53;;;;;;;3.50;0.88;;;25.60;35.00;;;;;;4982656;28;87699;-71
2023/03/19 10:46:20;;;;;;;2.72;1.08;;;25.30;35.70;;;;;;4970413;28;87325;-71
2023/03/19 10:48:47;;;;;;;2.58;0.82;;;25.00;35.80;;;;;;4977572;28;87499;-72
2023/03/19 10:51:17;;;;;;;2.08;0.70;;;24.60;36.60;;;;;;4971295;28;87512;-71
2023/03/19 10:53:42;;;;;;;4.82;0.88;;;24.10;36.10;;;;;;4976982;28;87336;-71
2023/03/19 10:56:19;;;;;;;2.70;0.90;;;23.80;36.30;;;;;;4977469;28;87187;-70
2023/03/19 10:59:01;;;;;;;3.05;0.50;;;23.30;37.10;;;;;;4977802;28;87003;-71
2023/03/19 11:01:33;;;;;;;3.78;0.70;;;22.70;38.10;;;;;;4971469;28;89435;-71
2023/03/19 11:04:01;;;;;;;2.03;0.52;;;22.40;38.70;;;;;;4976993;28;88816;-71
2023/03/19 11:06:30;;;;;;;3.15;0.73;;;22.30;39.00;;;;;;4972612;28;88649;-70
2023/03/19 11:09:01;;;;;;;5.05;1.00;;;22.20;40.00;;;;;;4970150;28;87323;-71
2023/03/19 11:11:44;;;;;;;2.00;0.63;;;22.50;40.10;;;;;;4980691;28;87673;-72
2023/03/19 11:14:18;;;;;;;2.88;1.33;;;22.90;39.70;;;;;;4982838;28;90721;-71
2023/03/19 11:17:01;;;;;;;5.70;1.20;;;23.10;41.70;;;;;;4977661;28;87491;-70
2023/03/19 11:19:33;;;;;;;4.13;0.90;;;23.30;37.80;;;;;;4978585;28;86551;-71
2023/03/19 11:22:08;;;;;;;3.00;0.88;;;23.60;39.30;;;;;;4979655;28;87532;-72
2023/03/19 11:24:39;;;;;;;2.47;0.73;;;23.20;37.40;;;;;;4976706;28;87701;-72
2023/03/19 11:27:05;;;;;;;3.20;1.02;;;22.90;38.10;;;;;;4980506;28;88559;-70
2023/03/19 11:29:33;;;;;;;4.82;0.95;;;22.90;39.40;;;;;;4981325;28;87142;-71
2023/03/19 11:32:20;;;;;;;4.95;1.25;;;22.90;38.40;;;;;;4986539;28;87613;-72
2023/03/19 11:35:00;;;;;;;3.65;1.15;;;22.90;40.40;;;;;;4995209;28;87934;-70
2023/03/19 11:37:44;;;;;;;1.55;0.68;;;22.80;40.90;;;;;;4979261;28;88295;-70
2023/03/19 11:40:40;;;;;;;2.53;0.80;;;22.80;39.00;;;;;;4978407;28;87093;-71
2023/03/19 11:43:29;;;;;;;2.80;0.85;;;22.80;41.40;;;;;;4972761;28;87829;-71
2023/03/19 11:46:13;;;;;;;1.92;0.57;;;22.80;39.60;;;;;;4980202;28;87450;-69
2023/03/19 11:48:51;;;;;;;2.47;0.65;;;22.90;37.90;;;;;;4971956;28;87478;-71
2023/03/19 11:51:50;;;;;;;3.30;0.98;;;22.20;38.10;;;;;;4979621;28;87626;-71
2023/03/19 11:54:19;;;;;;;5.38;0.63;;;21.60;38.70;;;;;;4970088;28;89145;-69
2023/03/19 11:56:58;;;;;;;2.13;0.50;;;21.50;39.80;;;;;;4978873;28;88847;-71
2023/03/19 12:00:01;;;;;;;2.20;0.50;;;21.50;40.40;;;;;;4979285;28;87273;-71
2023/03/19 12:02:38;;;;;;;2.42;0.60;;;21.40;41.10;;;;;;4991428;28;87525;-70
2023/03/19 12:05:25;;;;;;;1.70;0.50;;;21.50;41.50;;;;;;5000219;28;88357;-69
2023/03/19 12:08:06;;;;;;;1.50;0.22;;;21.60;41.30;;;;;;4984234;28;87828;-71
2023/03/19 12:10:51;;;;;;;3.10;0.60;;;21.70;43.10;;;;;;4971878;28;87193;-70
2023/03/19 12:13:28;;;;;;;2.33;0.63;;;21.40;43.70;;;;;;4968266;28;88360;-70
2023/03/19 12:16:01;;;;;;;4.22;0.60;;;21.40;41.80;;;;;;4981878;28;87600;-70
2023/03/19 12:18:51;;;;;;;1.98;0.73;;;21.30;45.60;;;;;;4986323;28;87856;-69
2023/03/19 12:21:33;;;;;;;3.15;0.57;;;21.30;41.80;;;;;;4974910;28;88436;-69
2023/03/19 12:24:05;;;;;;;;;;;21.20;42.40;;;;;;4986734;28;87854;-68
2023/03/19 12:26:55;;;;;;;3.97;0.63;;;20.90;43.40;;;;;;4978611;28;89325;-70
2023/03/19 12:29:58;;;;;;;4.40;0.50;;;20.60;43.80;;;;;;4965270;28;87470;-70
2023/03/19 12:32:52;;;;;;;2.65;0.40;;;20.50;43.80;;;;;;4971534;28;87400;-69
2023/03/19 12:35:24;;;;;;;3.28;0.50;;;20.60;46.80;;;;;;4977984;28;87508;-70
2023/03/19 12:38:23;;;;;;;4.07;0.50;;;20.60;45.80;;;;;;4979928;28;88221;-69
2023/03/19 12:41:09;;;;;;;4.93;0.50;;;20.60;45.00;;;;;;4968837;28;87566;-69
2023/03/19 12:43:35;;;;;;;2.67;0.50;;;20.60;44.30;;;;;;4971175;28;87780;-71
2023/03/19 12:46:15;;;;;;;3.10;0.55;;;20.60;44.50;;;;;;4972809;28;87594;-70
2023/03/19 12:49:10;;;;;;;2.47;0.50;;;20.60;44.50;;;;;;4974442;28;89785;-70
2023/03/19 12:51:39;;;;;;;;;;;20.50;45.10;;;;;;4973352;28;88161;-72
2023/03/19 12:54:13;;;;;;;2.97;0.50;;;20.40;46.40;;;;;;4970470;28;88114;-71
2023/03/19 12:56:46;;;;;;;5.18;0.55;;;20.20;45.40;;;;;;4969787;28;88817;-71
2023/03/19 12:59:34;;;;;;;3.35;0.40;;;20.20;46.20;;;;;;4972122;28;88842;-73